Jasná obloha bez mraků
Jasná obloha bez mraků
Jasná obloha bez mraků
Jasná obloha bez mraků
Jasno s ojedinělými nízkými oblaky
Mlha/ nízké stratusové oblaky
Mlha/ nízké stratusové oblaky
(°C)
(°C)
-0°
-1°
-1°
SSZ
SZ
SZ
SZ
SSZ
SSZ
SZ
(km/h)
4-6
4-7
4-7
5-9
4-7
4-6
4-5
(mm)
0
0
0
0
0
0
0
(%)
0
0
0
0
0
0
0

Sluneční výška

/ -63°
sun-icon
UV 3
08:08
18:27
Dorůstající měsíc (123°)
13:46
04:17

METAR pro Alcantarilla (LERI)

Čas Podmínky Teplota/
Rosný bod
Vítr Viditelnost Počasí Oblaky Tlak Změna Nezpracované
VFR 12°C / 2°C 260º 7kt >10km - Clouds and Visibility OK 1026 No Significant change LERI 311800Z 26007KT CAVOK 12/02 Q1026 NOSIG
VFR 14°C / 2°C 250º 6kt >10km - Clouds and Visibility OK 1026 No Significant change LERI 311730Z 25006KT CAVOK 14/02 Q1026 NOSIG
VFR 16°C / 0°C 250º variable 210º to 270º 4kt >10km - Clouds and Visibility OK 1026 No Significant change LERI 311700Z 25004KT 210V270 CAVOK 16/M00 Q1026 NOSIG
VFR 17°C / -7°C 20º variable 350º to 070º 3kt >10km - Clouds and Visibility OK 1026 No Significant change LERI 311630Z 02003KT 350V070 CAVOK 17/M07 Q1026 NOSIG
VFR 18°C / -7°C variable 1kt >10km - Clouds and Visibility OK 1026 No Significant change LERI 311600Z VRB01KT CAVOK 18/M07 Q1026 NOSIG
VFR 18°C / -7°C 20º variable 330º to 080º 4kt >10km - Clouds and Visibility OK 1026 No Significant change LERI 311530Z 02004KT 330V080 CAVOK 18/M07 Q1026 NOSIG
VFR 18°C / -7°C variable 4kt >10km - Clouds and Visibility OK 1026 No Significant change LERI 311500Z VRB04KT CAVOK 18/M07 Q1026 NOSIG
VFR 18°C / -9°C 360º variable 320º to 110º 3kt >10km - Clouds and Visibility OK 1026 No Significant change LERI 311430Z 36003KT 320V110 CAVOK 18/M09 Q1026 NOSIG
VFR 17°C / -8°C 30º variable 330º to 110º 4kt >10km - Clouds and Visibility OK 1026 No Significant change LERI 311400Z 03004KT 330V110 CAVOK 17/M08 Q1026 NOSIG
VFR 17°C / -8°C variable 4kt >10km - Clouds and Visibility OK 1027 No Significant change LERI 311330Z VRB04KT CAVOK 17/M08 Q1027 NOSIG
VFR 17°C / -8°C 20º variable 290º to 080º 4kt >10km - Clouds and Visibility OK 1027 No Significant change LERI 311300Z 02004KT 290V080 CAVOK 17/M08 Q1027 NOSIG
VFR 17°C / -8°C variable 6kt >10km - Clouds and Visibility OK 1027 No Significant change LERI 311230Z VRB06KT CAVOK 17/M08 Q1027 NOSIG
VFR 16°C / -8°C 280º variable 220º to 010º 5kt >10km - Clouds and Visibility OK 1028 No Significant change LERI 311200Z 28005KT 220V010 CAVOK 16/M08 Q1028 NOSIG
VFR 15°C / -3°C 200º variable 100º to 270º 3kt >10km - Clouds and Visibility OK 1028 No Significant change LERI 311130Z 20003KT 100V270 CAVOK 15/M03 Q1028 NOSIG
VFR 13°C / -2°C 190º variable 120º to 250º 3kt >10km - Clouds and Visibility OK 1029 No Significant change LERI 311100Z 19003KT 120V250 CAVOK 13/M02 Q1029 NOSIG
VFR 13°C / -2°C variable 3kt >10km - Clouds and Visibility OK 1029 No Significant change LERI 311030Z VRB03KT CAVOK 13/M02 Q1029 NOSIG
VFR 11°C / -2°C variable 1kt >10km - Clouds and Visibility OK 1030 No Significant change LERI 311000Z VRB01KT CAVOK 11/M02 Q1030 NOSIG
VFR 9°C / -1°C 240º 3kt >10km - Clouds and Visibility OK 1029 No Significant change LERI 310930Z 24003KT CAVOK 09/M01 Q1029 NOSIG
VFR 6°C / 0°C 230º 4kt >10km - Clouds and Visibility OK 1029 No Significant change LERI 310900Z 23004KT CAVOK 06/M00 Q1029 NOSIG
VFR 3°C / -1°C 240º 4kt >10km - Clouds and Visibility OK 1029 No Significant change LERI 310830Z 24004KT CAVOK 03/M01 Q1029 NOSIG
VFR 1°C / -2°C 220º 5kt >10km - Clouds and Visibility OK 1029 No Significant change LERI 310800Z 22005KT CAVOK 01/M02 Q1029 NOSIG
VFR 0°C / -3°C variable 2kt >10km - Clouds and Visibility OK 1028 No Significant change LERI 310730Z VRB02KT CAVOK 00/M03 Q1028 NOSIG
VFR 0°C / -3°C 230º 6kt >10km - Clouds and Visibility OK 1028 No Significant change LERI 310700Z 23006KT CAVOK M00/M03 Q1028 NOSIG
VFR -1°C / -3°C 240º 5kt >10km - Clouds and Visibility OK 1028 No Significant change LERI 310630Z 24005KT CAVOK M01/M03 Q1028 NOSIG

VFR

12°C / 2°C

[Víc]
Vítr 260º 7kt
Viditelnost >10km
Počasí -
Oblaky Clouds and Visibility OK
Tlak 1026
Změna No Significant change
Nezpracované LERI 311800Z 26007KT CAVOK 12/02 Q1026 NOSIG

VFR

14°C / 2°C

[Víc]
Vítr 250º 6kt
Viditelnost >10km
Počasí -
Oblaky Clouds and Visibility OK
Tlak 1026
Změna No Significant change
Nezpracované LERI 311730Z 25006KT CAVOK 14/02 Q1026 NOSIG

VFR

16°C / 0°C

[Víc]
Vítr 250º variable 210º to 270º 4kt
Viditelnost >10km
Počasí -
Oblaky Clouds and Visibility OK
Tlak 1026
Změna No Significant change
Nezpracované LERI 311700Z 25004KT 210V270 CAVOK 16/M00 Q1026 NOSIG

VFR

17°C / -7°C

[Víc]
Vítr 20º variable 350º to 070º 3kt
Viditelnost >10km
Počasí -
Oblaky Clouds and Visibility OK
Tlak 1026
Změna No Significant change
Nezpracované LERI 311630Z 02003KT 350V070 CAVOK 17/M07 Q1026 NOSIG

VFR

18°C / -7°C

[Víc]
Vítr variable 1kt
Viditelnost >10km
Počasí -
Oblaky Clouds and Visibility OK
Tlak 1026
Změna No Significant change
Nezpracované LERI 311600Z VRB01KT CAVOK 18/M07 Q1026 NOSIG

VFR

18°C / -7°C

[Víc]
Vítr 20º variable 330º to 080º 4kt
Viditelnost >10km
Počasí -
Oblaky Clouds and Visibility OK
Tlak 1026
Změna No Significant change
Nezpracované LERI 311530Z 02004KT 330V080 CAVOK 18/M07 Q1026 NOSIG

VFR

18°C / -7°C

[Víc]
Vítr variable 4kt
Viditelnost >10km
Počasí -
Oblaky Clouds and Visibility OK
Tlak 1026
Změna No Significant change
Nezpracované LERI 311500Z VRB04KT CAVOK 18/M07 Q1026 NOSIG

VFR

18°C / -9°C

[Víc]
Vítr 360º variable 320º to 110º 3kt
Viditelnost >10km
Počasí -
Oblaky Clouds and Visibility OK
Tlak 1026
Změna No Significant change
Nezpracované LERI 311430Z 36003KT 320V110 CAVOK 18/M09 Q1026 NOSIG

VFR

17°C / -8°C

[Víc]
Vítr 30º variable 330º to 110º 4kt
Viditelnost >10km
Počasí -
Oblaky Clouds and Visibility OK
Tlak 1026
Změna No Significant change
Nezpracované LERI 311400Z 03004KT 330V110 CAVOK 17/M08 Q1026 NOSIG

VFR

17°C / -8°C

[Víc]
Vítr variable 4kt
Viditelnost >10km
Počasí -
Oblaky Clouds and Visibility OK
Tlak 1027
Změna No Significant change
Nezpracované LERI 311330Z VRB04KT CAVOK 17/M08 Q1027 NOSIG

VFR

17°C / -8°C

[Víc]
Vítr 20º variable 290º to 080º 4kt
Viditelnost >10km
Počasí -
Oblaky Clouds and Visibility OK
Tlak 1027
Změna No Significant change
Nezpracované LERI 311300Z 02004KT 290V080 CAVOK 17/M08 Q1027 NOSIG

VFR

17°C / -8°C

[Víc]
Vítr variable 6kt
Viditelnost >10km
Počasí -
Oblaky Clouds and Visibility OK
Tlak 1027
Změna No Significant change
Nezpracované LERI 311230Z VRB06KT CAVOK 17/M08 Q1027 NOSIG

VFR

16°C / -8°C

[Víc]
Vítr 280º variable 220º to 010º 5kt
Viditelnost >10km
Počasí -
Oblaky Clouds and Visibility OK
Tlak 1028
Změna No Significant change
Nezpracované LERI 311200Z 28005KT 220V010 CAVOK 16/M08 Q1028 NOSIG

VFR

15°C / -3°C

[Víc]
Vítr 200º variable 100º to 270º 3kt
Viditelnost >10km
Počasí -
Oblaky Clouds and Visibility OK
Tlak 1028
Změna No Significant change
Nezpracované LERI 311130Z 20003KT 100V270 CAVOK 15/M03 Q1028 NOSIG

VFR

13°C / -2°C

[Víc]
Vítr 190º variable 120º to 250º 3kt
Viditelnost >10km
Počasí -
Oblaky Clouds and Visibility OK
Tlak 1029
Změna No Significant change
Nezpracované LERI 311100Z 19003KT 120V250 CAVOK 13/M02 Q1029 NOSIG

VFR

13°C / -2°C

[Víc]
Vítr variable 3kt
Viditelnost >10km
Počasí -
Oblaky Clouds and Visibility OK
Tlak 1029
Změna No Significant change
Nezpracované LERI 311030Z VRB03KT CAVOK 13/M02 Q1029 NOSIG

VFR

11°C / -2°C

[Víc]
Vítr variable 1kt
Viditelnost >10km
Počasí -
Oblaky Clouds and Visibility OK
Tlak 1030
Změna No Significant change
Nezpracované LERI 311000Z VRB01KT CAVOK 11/M02 Q1030 NOSIG

VFR

9°C / -1°C

[Víc]
Vítr 240º 3kt
Viditelnost >10km
Počasí -
Oblaky Clouds and Visibility OK
Tlak 1029
Změna No Significant change
Nezpracované LERI 310930Z 24003KT CAVOK 09/M01 Q1029 NOSIG

VFR

6°C / 0°C

[Víc]
Vítr 230º 4kt
Viditelnost >10km
Počasí -
Oblaky Clouds and Visibility OK
Tlak 1029
Změna No Significant change
Nezpracované LERI 310900Z 23004KT CAVOK 06/M00 Q1029 NOSIG

VFR

3°C / -1°C

[Víc]
Vítr 240º 4kt
Viditelnost >10km
Počasí -
Oblaky Clouds and Visibility OK
Tlak 1029
Změna No Significant change
Nezpracované LERI 310830Z 24004KT CAVOK 03/M01 Q1029 NOSIG

VFR

1°C / -2°C

[Víc]
Vítr 220º 5kt
Viditelnost >10km
Počasí -
Oblaky Clouds and Visibility OK
Tlak 1029
Změna No Significant change
Nezpracované LERI 310800Z 22005KT CAVOK 01/M02 Q1029 NOSIG

VFR

0°C / -3°C

[Víc]
Vítr variable 2kt
Viditelnost >10km
Počasí -
Oblaky Clouds and Visibility OK
Tlak 1028
Změna No Significant change
Nezpracované LERI 310730Z VRB02KT CAVOK 00/M03 Q1028 NOSIG

VFR

0°C / -3°C

[Víc]
Vítr 230º 6kt
Viditelnost >10km
Počasí -
Oblaky Clouds and Visibility OK
Tlak 1028
Změna No Significant change
Nezpracované LERI 310700Z 23006KT CAVOK M00/M03 Q1028 NOSIG

VFR

-1°C / -3°C

[Víc]
Vítr 240º 5kt
Viditelnost >10km
Počasí -
Oblaky Clouds and Visibility OK
Tlak 1028
Změna No Significant change
Nezpracované LERI 310630Z 24005KT CAVOK M01/M03 Q1028 NOSIG

TAF pro Alcantarilla (LERI)

From till


Maximum Temperature 16ºC on . Minimum Temperature 0ºC on .
From till Wind 270º 5kt. Visibility 10km or more. Nil Significant Cloud.
With 30% probability, Temporarly from till Wind 70º 10kt.

Nezpracované: TAF LERI 311700Z 3118/0118 27005KT CAVOK TX16/0114Z TN00/0107Z PROB30 TEMPO 0116/0118 07010KT

Radar a krátkodobá předpověď srážek pro Alcantarilla

Mrholení
Slabé
Střední
Silné
Velmi silné
Kroupy

Značka lokality je umístněna na Alcantarilla. Singular: Tato animace ukazuje srážky zaznamenané radarem za poslední 1 hodinu. Mrholení nebo slabé sněžení může být pro radar neviditelné. Intenzita srážek je barevně označena od světle modré po oranžovou.
Zdroj radarových dat: AEMET.

Aktuální snímky ze satelitu a srážky pro Alcantarilla, Španělsko

Značka polohy je umístěna na Alcantarilla. [Víc]

Satelitní snímek v reálném čase kombinuje viditelné světlo během dne s infračerveným zářením během noci. V noci není obraz tmavý, protože infračervené záření dokáže detekovat teplotní rozdíly. Nízká oblačnost a mlha se bohužel těžko odlišují od pozemních teplot, a proto mohou být během noci téměř neviditelné. Satelitní snímky z Meteosatu pro Evropu jsou aktualizovány v reálném čase každých 5 minut. Snímky z GOES-16/GOES-17 (Severní a Jižní Amerika) a Himawari (Asie) jsou aktualizovány) každých 10 minut.

Srážky se odhadují z radarů a družic. Odhady srážek ze satelitů jsou v noci méně přesné než ve dne. Oranžové křížky označují místa, kde byl zaznamenán blesk (za Evropa).

Copyright 2023 EUMETSAT / meteoblue. Údaje o blescích poskytuje nowcast.

Zpět nahoru